sensor_id;sensor_type;location;lat;lon;timestamp;P1;durP1;ratioP1;P2;durP2;ratioP2
30948;SDS011;17637;51.984;21.208;2022-11-06T00:00:44;45.25;;;27.35;;
30948;SDS011;17637;51.984;21.208;2022-11-06T00:03:11;46.10;;;28.20;;
30948;SDS011;17637;51.984;21.208;2022-11-06T00:05:39;53.15;;;28.92;;
30948;SDS011;17637;51.984;21.208;2022-11-06T00:08:34;54.65;;;27.15;;
30948;SDS011;17637;51.984;21.208;2022-11-06T00:11:07;43.22;;;24.40;;
30948;SDS011;17637;51.984;21.208;2022-11-06T00:13:38;52.42;;;29.40;;
30948;SDS011;17637;51.984;21.208;2022-11-06T00:16:06;46.00;;;28.52;;
30948;SDS011;17637;51.984;21.208;2022-11-06T00:18:36;50.42;;;28.77;;
30948;SDS011;17637;51.984;21.208;2022-11-06T00:21:07;44.20;;;27.20;;
30948;SDS011;17637;51.984;21.208;2022-11-06T00:23:39;38.63;;;27.05;;
30948;SDS011;17637;51.984;21.208;2022-11-06T00:26:07;46.22;;;27.35;;
30948;SDS011;17637;51.984;21.208;2022-11-06T00:28:35;46.08;;;27.98;;
30948;SDS011;17637;51.984;21.208;2022-11-06T00:31:08;38.00;;;26.35;;
30948;SDS011;17637;51.984;21.208;2022-11-06T00:33:50;50.40;;;27.50;;
30948;SDS011;17637;51.984;21.208;2022-11-06T00:36:19;41.00;;;25.35;;
30948;SDS011;17637;51.984;21.208;2022-11-06T00:38:52;43.83;;;26.55;;
30948;SDS011;17637;51.984;21.208;2022-11-06T00:41:20;45.03;;;26.30;;
30948;SDS011;17637;51.984;21.208;2022-11-06T00:43:49;44.38;;;27.00;;
30948;SDS011;17637;51.984;21.208;2022-11-06T00:46:20;42.10;;;25.15;;
30948;SDS011;17637;51.984;21.208;2022-11-06T00:48:47;42.28;;;25.27;;
30948;SDS011;17637;51.984;21.208;2022-11-06T00:51:25;39.17;;;26.50;;
30948;SDS011;17637;51.984;21.208;2022-11-06T00:53:59;43.13;;;25.25;;
30948;SDS011;17637;51.984;21.208;2022-11-06T00:56:28;38.53;;;23.52;;
30948;SDS011;17637;51.984;21.208;2022-11-06T00:58:59;36.65;;;24.45;;
30948;SDS011;17637;51.984;21.208;2022-11-06T01:01:28;44.85;;;26.15;;
30948;SDS011;17637;51.984;21.208;2022-11-06T01:04:01;48.47;;;26.90;;
30948;SDS011;17637;51.984;21.208;2022-11-06T01:06:42;42.95;;;24.40;;
30948;SDS011;17637;51.984;21.208;2022-11-06T01:09:12;40.92;;;24.58;;
30948;SDS011;17637;51.984;21.208;2022-11-06T01:11:42;39.73;;;25.43;;
30948;SDS011;17637;51.984;21.208;2022-11-06T01:14:31;42.97;;;23.33;;
30948;SDS011;17637;51.984;21.208;2022-11-06T01:16:58;44.70;;;25.15;;
30948;SDS011;17637;51.984;21.208;2022-11-06T01:19:25;40.58;;;24.10;;
30948;SDS011;17637;51.984;21.208;2022-11-06T01:21:53;47.15;;;24.50;;
30948;SDS011;17637;51.984;21.208;2022-11-06T01:24:22;51.58;;;26.67;;
30948;SDS011;17637;51.984;21.208;2022-11-06T01:26:51;43.35;;;26.42;;
30948;SDS011;17637;51.984;21.208;2022-11-06T01:29:39;41.03;;;23.27;;
30948;SDS011;17637;51.984;21.208;2022-11-06T01:32:06;37.90;;;22.73;;
30948;SDS011;17637;51.984;21.208;2022-11-06T01:34:33;42.67;;;25.23;;
30948;SDS011;17637;51.984;21.208;2022-11-06T01:37:00;46.03;;;25.00;;
30948;SDS011;17637;51.984;21.208;2022-11-06T01:39:27;38.45;;;22.95;;
30948;SDS011;17637;51.984;21.208;2022-11-06T01:41:54;39.50;;;21.48;;
30948;SDS011;17637;51.984;21.208;2022-11-06T01:47:22;43.72;;;22.02;;
30948;SDS011;17637;51.984;21.208;2022-11-06T01:49:55;44.28;;;23.73;;
30948;SDS011;17637;51.984;21.208;2022-11-06T01:52:26;36.92;;;22.48;;
30948;SDS011;17637;51.984;21.208;2022-11-06T01:54:56;44.70;;;23.75;;
30948;SDS011;17637;51.984;21.208;2022-11-06T01:57:28;44.13;;;22.92;;
30948;SDS011;17637;51.984;21.208;2022-11-06T01:59:55;44.30;;;24.05;;
30948;SDS011;17637;51.984;21.208;2022-11-06T02:02:22;40.97;;;23.77;;
30948;SDS011;17637;51.984;21.208;2022-11-06T02:04:50;38.78;;;20.92;;
30948;SDS011;17637;51.984;21.208;2022-11-06T02:07:17;38.50;;;22.70;;
30948;SDS011;17637;51.984;21.208;2022-11-06T02:09:45;41.17;;;24.08;;
30948;SDS011;17637;51.984;21.208;2022-11-06T02:12:16;42.00;;;23.42;;
30948;SDS011;17637;51.984;21.208;2022-11-06T02:31:49;52.45;;;26.92;;
30948;SDS011;17637;51.984;21.208;2022-11-06T02:34:20;48.63;;;27.27;;
30948;SDS011;17637;51.984;21.208;2022-11-06T02:39:25;45.42;;;24.02;;
30948;SDS011;17637;51.984;21.208;2022-11-06T02:41:55;52.03;;;25.02;;
30948;SDS011;17637;51.984;21.208;2022-11-06T02:44:25;44.08;;;24.58;;
30948;SDS011;17637;51.984;21.208;2022-11-06T02:46:56;48.50;;;25.42;;
30948;SDS011;17637;51.984;21.208;2022-11-06T02:49:29;48.65;;;27.02;;
30948;SDS011;17637;51.984;21.208;2022-11-06T02:52:03;45.42;;;25.38;;
30948;SDS011;17637;51.984;21.208;2022-11-06T02:54:36;46.88;;;26.85;;
30948;SDS011;17637;51.984;21.208;2022-11-06T02:57:07;49.15;;;28.17;;
30948;SDS011;17637;51.984;21.208;2022-11-06T03:02:07;46.88;;;25.70;;
30948;SDS011;17637;51.984;21.208;2022-11-06T03:04:44;47.55;;;28.05;;
30948;SDS011;17637;51.984;21.208;2022-11-06T03:07:20;49.00;;;27.17;;
30948;SDS011;17637;51.984;21.208;2022-11-06T03:09:58;48.08;;;25.85;;
30948;SDS011;17637;51.984;21.208;2022-11-06T03:12:30;43.08;;;26.75;;
30948;SDS011;17637;51.984;21.208;2022-11-06T03:15:25;49.00;;;26.15;;
30948;SDS011;17637;51.984;21.208;2022-11-06T03:23:27;43.25;;;24.23;;
30948;SDS011;17637;51.984;21.208;2022-11-06T03:26:07;53.85;;;26.13;;
30948;SDS011;17637;51.984;21.208;2022-11-06T03:28:54;42.00;;;24.10;;
30948;SDS011;17637;51.984;21.208;2022-11-06T03:31:30;43.58;;;24.45;;
30948;SDS011;17637;51.984;21.208;2022-11-06T03:34:02;46.88;;;24.38;;
30948;SDS011;17637;51.984;21.208;2022-11-06T03:36:33;42.75;;;22.55;;
30948;SDS011;17637;51.984;21.208;2022-11-06T03:39:06;41.50;;;22.50;;
30948;SDS011;17637;51.984;21.208;2022-11-06T03:41:41;52.20;;;26.40;;
30948;SDS011;17637;51.984;21.208;2022-11-06T03:44:16;43.67;;;23.50;;
30948;SDS011;17637;51.984;21.208;2022-11-06T03:46:46;46.15;;;24.55;;
30948;SDS011;17637;51.984;21.208;2022-11-06T03:49:20;46.78;;;25.50;;
30948;SDS011;17637;51.984;21.208;2022-11-06T03:51:54;47.85;;;25.88;;
30948;SDS011;17637;51.984;21.208;2022-11-06T03:54:26;52.75;;;25.52;;
30948;SDS011;17637;51.984;21.208;2022-11-06T03:57:01;48.47;;;24.17;;
30948;SDS011;17637;51.984;21.208;2022-11-06T03:59:38;41.75;;;23.38;;
30948;SDS011;17637;51.984;21.208;2022-11-06T04:02:10;40.67;;;23.38;;
30948;SDS011;17637;51.984;21.208;2022-11-06T04:04:42;45.90;;;23.90;;
30948;SDS011;17637;51.984;21.208;2022-11-06T04:07:17;43.55;;;23.33;;
30948;SDS011;17637;51.984;21.208;2022-11-06T04:09:52;47.33;;;25.92;;
30948;SDS011;17637;51.984;21.208;2022-11-06T04:12:40;44.10;;;23.27;;
30948;SDS011;17637;51.984;21.208;2022-11-06T04:15:33;46.72;;;21.63;;
30948;SDS011;17637;51.984;21.208;2022-11-06T04:18:13;34.72;;;21.13;;
30948;SDS011;17637;51.984;21.208;2022-11-06T04:32:23;38.73;;;20.73;;
30948;SDS011;17637;51.984;21.208;2022-11-06T04:35:01;56.28;;;25.80;;
30948;SDS011;17637;51.984;21.208;2022-11-06T04:40:44;41.50;;;22.37;;
30948;SDS011;17637;51.984;21.208;2022-11-06T04:43:24;51.63;;;24.45;;
30948;SDS011;17637;51.984;21.208;2022-11-06T04:46:10;48.80;;;23.52;;
30948;SDS011;17637;51.984;21.208;2022-11-06T04:48:42;56.33;;;27.17;;
30948;SDS011;17637;51.984;21.208;2022-11-06T04:51:11;48.80;;;24.58;;
30948;SDS011;17637;51.984;21.208;2022-11-06T04:53:40;50.35;;;27.27;;
30948;SDS011;17637;51.984;21.208;2022-11-06T04:56:09;49.92;;;25.85;;
30948;SDS011;17637;51.984;21.208;2022-11-06T04:58:37;49.33;;;25.52;;
30948;SDS011;17637;51.984;21.208;2022-11-06T05:01:05;41.80;;;24.30;;
30948;SDS011;17637;51.984;21.208;2022-11-06T05:03:32;45.78;;;25.27;;
30948;SDS011;17637;51.984;21.208;2022-11-06T05:05:59;52.58;;;27.58;;
30948;SDS011;17637;51.984;21.208;2022-11-06T05:08:26;51.05;;;25.27;;
30948;SDS011;17637;51.984;21.208;2022-11-06T05:10:53;44.85;;;24.75;;
30948;SDS011;17637;51.984;21.208;2022-11-06T05:13:20;45.63;;;25.90;;
30948;SDS011;17637;51.984;21.208;2022-11-06T05:15:47;64.53;;;29.58;;
30948;SDS011;17637;51.984;21.208;2022-11-06T05:18:14;53.30;;;27.67;;
30948;SDS011;17637;51.984;21.208;2022-11-06T05:20:42;77.65;;;33.25;;
30948;SDS011;17637;51.984;21.208;2022-11-06T05:23:09;74.47;;;32.50;;
30948;SDS011;17637;51.984;21.208;2022-11-06T05:25:36;70.15;;;33.63;;
30948;SDS011;17637;51.984;21.208;2022-11-06T05:28:06;54.80;;;28.85;;
30948;SDS011;17637;51.984;21.208;2022-11-06T05:30:34;76.05;;;34.50;;
30948;SDS011;17637;51.984;21.208;2022-11-06T05:33:02;78.97;;;31.73;;
30948;SDS011;17637;51.984;21.208;2022-11-06T05:35:29;76.65;;;32.25;;
30948;SDS011;17637;51.984;21.208;2022-11-06T05:37:57;77.22;;;32.95;;
30948;SDS011;17637;51.984;21.208;2022-11-06T05:40:25;80.22;;;31.70;;
30948;SDS011;17637;51.984;21.208;2022-11-06T05:42:52;64.65;;;30.55;;
30948;SDS011;17637;51.984;21.208;2022-11-06T05:45:19;72.70;;;33.47;;
30948;SDS011;17637;51.984;21.208;2022-11-06T05:47:46;89.10;;;35.35;;
30948;SDS011;17637;51.984;21.208;2022-11-06T05:50:13;103.47;;;36.88;;
30948;SDS011;17637;51.984;21.208;2022-11-06T05:52:40;54.00;;;27.75;;
30948;SDS011;17637;51.984;21.208;2022-11-06T05:55:07;73.47;;;32.55;;
30948;SDS011;17637;51.984;21.208;2022-11-06T05:57:40;83.82;;;32.95;;
30948;SDS011;17637;51.984;21.208;2022-11-06T06:00:08;65.70;;;29.08;;
30948;SDS011;17637;51.984;21.208;2022-11-06T06:02:36;106.05;;;34.25;;
30948;SDS011;17637;51.984;21.208;2022-11-06T06:05:03;72.88;;;30.10;;
30948;SDS011;17637;51.984;21.208;2022-11-06T06:07:31;106.53;;;32.22;;
30948;SDS011;17637;51.984;21.208;2022-11-06T06:09:58;103.05;;;31.02;;
30948;SDS011;17637;51.984;21.208;2022-11-06T06:12:26;124.38;;;33.85;;
30948;SDS011;17637;51.984;21.208;2022-11-06T06:14:52;205.65;;;40.72;;
30948;SDS011;17637;51.984;21.208;2022-11-06T06:17:20;236.18;;;40.97;;
30948;SDS011;17637;51.984;21.208;2022-11-06T06:19:47;197.40;;;35.30;;
30948;SDS011;17637;51.984;21.208;2022-11-06T06:22:14;366.63;;;44.65;;
30948;SDS011;17637;51.984;21.208;2022-11-06T06:24:41;224.57;;;40.83;;
30948;SDS011;17637;51.984;21.208;2022-11-06T06:27:08;103.53;;;29.38;;
30948;SDS011;17637;51.984;21.208;2022-11-06T06:29:36;175.60;;;31.30;;
30948;SDS011;17637;51.984;21.208;2022-11-06T06:32:03;112.72;;;26.63;;
30948;SDS011;17637;51.984;21.208;2022-11-06T06:34:30;215.95;;;31.38;;
30948;SDS011;17637;51.984;21.208;2022-11-06T06:36:57;397.05;;;34.47;;
30948;SDS011;17637;51.984;21.208;2022-11-06T06:39:24;191.82;;;24.85;;
30948;SDS011;17637;51.984;21.208;2022-11-06T06:41:51;146.02;;;27.05;;
30948;SDS011;17637;51.984;21.208;2022-11-06T06:44:18;112.55;;;23.25;;
30948;SDS011;17637;51.984;21.208;2022-11-06T06:46:45;299.75;;;29.88;;
30948;SDS011;17637;51.984;21.208;2022-11-06T06:49:12;285.95;;;34.13;;
30948;SDS011;17637;51.984;21.208;2022-11-06T06:51:39;277.52;;;29.63;;
30948;SDS011;17637;51.984;21.208;2022-11-06T06:54:06;219.52;;;27.48;;
30948;SDS011;17637;51.984;21.208;2022-11-06T06:56:33;276.30;;;30.00;;
30948;SDS011;17637;51.984;21.208;2022-11-06T06:59:00;147.15;;;25.38;;
30948;SDS011;17637;51.984;21.208;2022-11-06T07:01:27;194.60;;;25.30;;
30948;SDS011;17637;51.984;21.208;2022-11-06T07:03:54;406.95;;;32.05;;
30948;SDS011;17637;51.984;21.208;2022-11-06T07:06:29;380.33;;;32.30;;
30948;SDS011;17637;51.984;21.208;2022-11-06T07:08:56;116.82;;;23.10;;
30948;SDS011;17637;51.984;21.208;2022-11-06T07:11:23;169.48;;;25.65;;
30948;SDS011;17637;51.984;21.208;2022-11-06T07:13:50;361.85;;;33.40;;
30948;SDS011;17637;51.984;21.208;2022-11-06T07:16:16;289.08;;;28.48;;
30948;SDS011;17637;51.984;21.208;2022-11-06T07:18:44;329.63;;;30.85;;
30948;SDS011;17637;51.984;21.208;2022-11-06T07:21:11;541.60;;;37.60;;
30948;SDS011;17637;51.984;21.208;2022-11-06T07:23:38;307.45;;;28.98;;
30948;SDS011;17637;51.984;21.208;2022-11-06T07:26:06;218.70;;;25.67;;
30948;SDS011;17637;51.984;21.208;2022-11-06T07:28:33;179.38;;;27.27;;
30948;SDS011;17637;51.984;21.208;2022-11-06T07:31:01;115.90;;;29.00;;
30948;SDS011;17637;51.984;21.208;2022-11-06T07:33:30;262.77;;;38.58;;
30948;SDS011;17637;51.984;21.208;2022-11-06T07:36:04;224.30;;;50.17;;
30948;SDS011;17637;51.984;21.208;2022-11-06T07:38:36;246.50;;;28.90;;
30948;SDS011;17637;51.984;21.208;2022-11-06T07:41:06;159.13;;;24.40;;
30948;SDS011;17637;51.984;21.208;2022-11-06T07:43:35;73.88;;;20.33;;
30948;SDS011;17637;51.984;21.208;2022-11-06T07:46:03;69.90;;;19.55;;
30948;SDS011;17637;51.984;21.208;2022-11-06T07:48:32;43.92;;;17.05;;
30948;SDS011;17637;51.984;21.208;2022-11-06T07:51:01;37.40;;;18.20;;
30948;SDS011;17637;51.984;21.208;2022-11-06T07:53:29;62.38;;;19.33;;
30948;SDS011;17637;51.984;21.208;2022-11-06T07:55:56;46.15;;;17.90;;
30948;SDS011;17637;51.984;21.208;2022-11-06T07:58:24;151.73;;;22.33;;
30948;SDS011;17637;51.984;21.208;2022-11-06T08:00:52;50.72;;;19.33;;
30948;SDS011;17637;51.984;21.208;2022-11-06T08:03:21;201.18;;;27.27;;
30948;SDS011;17637;51.984;21.208;2022-11-06T08:05:49;81.15;;;21.52;;
30948;SDS011;17637;51.984;21.208;2022-11-06T08:08:16;56.25;;;19.63;;
30948;SDS011;17637;51.984;21.208;2022-11-06T08:10:43;103.97;;;21.85;;
30948;SDS011;17637;51.984;21.208;2022-11-06T08:13:10;82.97;;;23.25;;
30948;SDS011;17637;51.984;21.208;2022-11-06T08:15:42;89.07;;;23.35;;
30948;SDS011;17637;51.984;21.208;2022-11-06T08:18:10;58.05;;;20.35;;
30948;SDS011;17637;51.984;21.208;2022-11-06T08:20:39;62.10;;;21.65;;
30948;SDS011;17637;51.984;21.208;2022-11-06T08:23:06;38.15;;;19.40;;
30948;SDS011;17637;51.984;21.208;2022-11-06T08:25:36;42.05;;;18.92;;
30948;SDS011;17637;51.984;21.208;2022-11-06T08:28:03;42.50;;;19.10;;
30948;SDS011;17637;51.984;21.208;2022-11-06T08:30:31;45.25;;;19.55;;
30948;SDS011;17637;51.984;21.208;2022-11-06T08:33:02;47.53;;;19.00;;
30948;SDS011;17637;51.984;21.208;2022-11-06T08:35:33;38.30;;;19.48;;
30948;SDS011;17637;51.984;21.208;2022-11-06T08:38:00;38.83;;;18.25;;
30948;SDS011;17637;51.984;21.208;2022-11-06T08:40:29;38.30;;;21.85;;
30948;SDS011;17637;51.984;21.208;2022-11-06T08:43:00;45.95;;;23.73;;
30948;SDS011;17637;51.984;21.208;2022-11-06T08:45:29;32.28;;;18.58;;
30948;SDS011;17637;51.984;21.208;2022-11-06T08:48:00;38.13;;;22.90;;
30948;SDS011;17637;51.984;21.208;2022-11-06T08:50:28;40.20;;;22.58;;
30948;SDS011;17637;51.984;21.208;2022-11-06T08:53:00;36.95;;;20.35;;
30948;SDS011;17637;51.984;21.208;2022-11-06T08:55:30;34.85;;;19.10;;
30948;SDS011;17637;51.984;21.208;2022-11-06T08:57:57;36.47;;;18.73;;
30948;SDS011;17637;51.984;21.208;2022-11-06T09:00:24;34.53;;;19.88;;
30948;SDS011;17637;51.984;21.208;2022-11-06T09:02:56;33.58;;;20.20;;
30948;SDS011;17637;51.984;21.208;2022-11-06T09:05:27;41.50;;;23.40;;
30948;SDS011;17637;51.984;21.208;2022-11-06T09:07:58;38.83;;;23.05;;
30948;SDS011;17637;51.984;21.208;2022-11-06T09:10:26;34.83;;;21.80;;
30948;SDS011;17637;51.984;21.208;2022-11-06T09:12:53;36.80;;;22.98;;
30948;SDS011;17637;51.984;21.208;2022-11-06T09:15:24;33.30;;;21.48;;
30948;SDS011;17637;51.984;21.208;2022-11-06T09:17:52;31.17;;;20.20;;
30948;SDS011;17637;51.984;21.208;2022-11-06T09:20:20;35.50;;;21.63;;
30948;SDS011;17637;51.984;21.208;2022-11-06T09:22:49;33.92;;;20.10;;
30948;SDS011;17637;51.984;21.208;2022-11-06T09:25:17;27.58;;;19.08;;
30948;SDS011;17637;51.984;21.208;2022-11-06T09:27:45;33.80;;;20.88;;
30948;SDS011;17637;51.984;21.208;2022-11-06T09:30:24;27.23;;;19.02;;
30948;SDS011;17637;51.984;21.208;2022-11-06T09:32:54;30.90;;;20.08;;
30948;SDS011;17637;51.984;21.208;2022-11-06T09:35:23;31.13;;;21.75;;
30948;SDS011;17637;51.984;21.208;2022-11-06T09:37:52;30.80;;;21.23;;
30948;SDS011;17637;51.984;21.208;2022-11-06T09:40:21;32.05;;;20.65;;
30948;SDS011;17637;51.984;21.208;2022-11-06T09:45:37;31.67;;;20.10;;
30948;SDS011;17637;51.984;21.208;2022-11-06T09:50:41;27.60;;;18.42;;
30948;SDS011;17637;51.984;21.208;2022-11-06T09:53:31;28.05;;;18.70;;
30948;SDS011;17637;51.984;21.208;2022-11-06T09:56:03;29.65;;;18.45;;
30948;SDS011;17637;51.984;21.208;2022-11-06T09:58:35;33.00;;;18.00;;
30948;SDS011;17637;51.984;21.208;2022-11-06T10:06:24;27.50;;;16.00;;
30948;SDS011;17637;51.984;21.208;2022-11-06T10:08:55;25.30;;;15.60;;
30948;SDS011;17637;51.984;21.208;2022-11-06T10:21:42;26.98;;;17.58;;
30948;SDS011;17637;51.984;21.208;2022-11-06T10:24:21;24.83;;;17.33;;
30948;SDS011;17637;51.984;21.208;2022-11-06T10:26:54;30.17;;;17.40;;
30948;SDS011;17637;51.984;21.208;2022-11-06T10:32:30;27.02;;;16.17;;
30948;SDS011;17637;51.984;21.208;2022-11-06T10:35:19;29.13;;;19.55;;
30948;SDS011;17637;51.984;21.208;2022-11-06T10:37:53;26.90;;;18.33;;
30948;SDS011;17637;51.984;21.208;2022-11-06T10:40:26;35.28;;;21.63;;
30948;SDS011;17637;51.984;21.208;2022-11-06T10:43:05;23.85;;;17.20;;
30948;SDS011;17637;51.984;21.208;2022-11-06T10:45:34;26.00;;;18.92;;
30948;SDS011;17637;51.984;21.208;2022-11-06T10:53:51;25.30;;;14.88;;
30948;SDS011;17637;51.984;21.208;2022-11-06T10:59:07;22.20;;;14.65;;
30948;SDS011;17637;51.984;21.208;2022-11-06T11:01:35;23.10;;;13.38;;
30948;SDS011;17637;51.984;21.208;2022-11-06T11:04:04;23.58;;;12.48;;
30948;SDS011;17637;51.984;21.208;2022-11-06T11:06:31;19.08;;;12.07;;
30948;SDS011;17637;51.984;21.208;2022-11-06T11:08:58;18.58;;;12.27;;
30948;SDS011;17637;51.984;21.208;2022-11-06T11:11:27;17.55;;;12.88;;
30948;SDS011;17637;51.984;21.208;2022-11-06T11:16:22;23.00;;;12.48;;
30948;SDS011;17637;51.984;21.208;2022-11-06T11:21:24;17.38;;;11.48;;
30948;SDS011;17637;51.984;21.208;2022-11-06T11:26:27;19.02;;;12.15;;
30948;SDS011;17637;51.984;21.208;2022-11-06T11:28:59;23.02;;;14.02;;
30948;SDS011;17637;51.984;21.208;2022-11-06T11:31:36;22.25;;;13.75;;
30948;SDS011;17637;51.984;21.208;2022-11-06T11:34:06;20.92;;;13.07;;
30948;SDS011;17637;51.984;21.208;2022-11-06T11:37:01;21.77;;;14.02;;
30948;SDS011;17637;51.984;21.208;2022-11-06T11:39:36;22.17;;;13.10;;
30948;SDS011;17637;51.984;21.208;2022-11-06T11:42:25;23.38;;;14.00;;
30948;SDS011;17637;51.984;21.208;2022-11-06T11:45:05;17.88;;;10.60;;
30948;SDS011;17637;51.984;21.208;2022-11-06T11:47:39;17.02;;;11.35;;
30948;SDS011;17637;51.984;21.208;2022-11-06T11:52:42;20.25;;;11.98;;
30948;SDS011;17637;51.984;21.208;2022-11-06T11:55:15;20.33;;;10.57;;
30948;SDS011;17637;51.984;21.208;2022-11-06T11:57:43;19.75;;;10.52;;
30948;SDS011;17637;51.984;21.208;2022-11-06T12:02:47;16.50;;;9.82;;
30948;SDS011;17637;51.984;21.208;2022-11-06T12:05:27;16.92;;;10.10;;
30948;SDS011;17637;51.984;21.208;2022-11-06T12:08:00;14.27;;;8.85;;
30948;SDS011;17637;51.984;21.208;2022-11-06T12:10:31;14.90;;;7.93;;
30948;SDS011;17637;51.984;21.208;2022-11-06T12:13:16;16.27;;;10.02;;
30948;SDS011;17637;51.984;21.208;2022-11-06T12:15:50;21.63;;;13.05;;
30948;SDS011;17637;51.984;21.208;2022-11-06T12:18:36;22.58;;;12.82;;
30948;SDS011;17637;51.984;21.208;2022-11-06T12:21:07;21.25;;;12.50;;
30948;SDS011;17637;51.984;21.208;2022-11-06T12:23:53;19.42;;;12.63;;
30948;SDS011;17637;51.984;21.208;2022-11-06T12:29:00;21.90;;;13.07;;
30948;SDS011;17637;51.984;21.208;2022-11-06T12:31:41;21.27;;;13.35;;
30948;SDS011;17637;51.984;21.208;2022-11-06T12:34:30;22.08;;;14.15;;
30948;SDS011;17637;51.984;21.208;2022-11-06T12:39:48;21.20;;;13.43;;
30948;SDS011;17637;51.984;21.208;2022-11-06T12:42:24;18.50;;;12.50;;
30948;SDS011;17637;51.984;21.208;2022-11-06T12:44:55;19.83;;;13.20;;
30948;SDS011;17637;51.984;21.208;2022-11-06T12:47:28;20.55;;;14.65;;
30948;SDS011;17637;51.984;21.208;2022-11-06T13:00:57;25.48;;;15.27;;
30948;SDS011;17637;51.984;21.208;2022-11-06T13:06:48;21.45;;;14.18;;
30948;SDS011;17637;51.984;21.208;2022-11-06T13:12:04;23.70;;;15.27;;
30948;SDS011;17637;51.984;21.208;2022-11-06T13:15:17;18.73;;;12.20;;
30948;SDS011;17637;51.984;21.208;2022-11-06T13:28:52;20.67;;;12.95;;
30948;SDS011;17637;51.984;21.208;2022-11-06T13:31:32;19.48;;;12.85;;
30948;SDS011;17637;51.984;21.208;2022-11-06T13:34:05;16.92;;;11.75;;
30948;SDS011;17637;51.984;21.208;2022-11-06T13:36:38;26.65;;;12.27;;
30948;SDS011;17637;51.984;21.208;2022-11-06T13:41:47;18.00;;;12.48;;
30948;SDS011;17637;51.984;21.208;2022-11-06T13:44:15;19.45;;;9.95;;
30948;SDS011;17637;51.984;21.208;2022-11-06T13:52:00;23.05;;;14.27;;
30948;SDS011;17637;51.984;21.208;2022-11-06T14:00:18;30.98;;;18.60;;
30948;SDS011;17637;51.984;21.208;2022-11-06T14:02:51;29.20;;;19.77;;
30948;SDS011;17637;51.984;21.208;2022-11-06T14:05:48;28.42;;;18.15;;
30948;SDS011;17637;51.984;21.208;2022-11-06T14:08:30;24.67;;;15.98;;
30948;SDS011;17637;51.984;21.208;2022-11-06T14:11:12;29.38;;;20.05;;
30948;SDS011;17637;51.984;21.208;2022-11-06T14:13:54;29.63;;;18.77;;
30948;SDS011;17637;51.984;21.208;2022-11-06T14:17:07;23.73;;;18.05;;
30948;SDS011;17637;51.984;21.208;2022-11-06T14:22:28;26.88;;;18.05;;
30948;SDS011;17637;51.984;21.208;2022-11-06T14:36:12;37.95;;;25.20;;
30948;SDS011;17637;51.984;21.208;2022-11-06T14:38:52;35.83;;;25.88;;
30948;SDS011;17637;51.984;21.208;2022-11-06T14:44:02;45.65;;;31.35;;
30948;SDS011;17637;51.984;21.208;2022-11-06T14:46:32;37.05;;;26.60;;
30948;SDS011;17637;51.984;21.208;2022-11-06T14:49:06;38.45;;;27.50;;
30948;SDS011;17637;51.984;21.208;2022-11-06T14:51:42;35.25;;;25.73;;
30948;SDS011;17637;51.984;21.208;2022-11-06T14:54:21;33.67;;;24.38;;
30948;SDS011;17637;51.984;21.208;2022-11-06T14:56:52;39.55;;;26.50;;
30948;SDS011;17637;51.984;21.208;2022-11-06T14:59:24;41.67;;;26.50;;
30948;SDS011;17637;51.984;21.208;2022-11-06T15:01:54;41.22;;;28.13;;
30948;SDS011;17637;51.984;21.208;2022-11-06T15:04:32;30.33;;;20.40;;
30948;SDS011;17637;51.984;21.208;2022-11-06T15:07:08;32.08;;;21.92;;
30948;SDS011;17637;51.984;21.208;2022-11-06T15:15:43;44.65;;;27.70;;
30948;SDS011;17637;51.984;21.208;2022-11-06T15:18:15;47.42;;;30.88;;
30948;SDS011;17637;51.984;21.208;2022-11-06T15:20:49;50.03;;;30.63;;
30948;SDS011;17637;51.984;21.208;2022-11-06T15:23:21;42.70;;;27.30;;
30948;SDS011;17637;51.984;21.208;2022-11-06T15:25:59;33.00;;;23.02;;
30948;SDS011;17637;51.984;21.208;2022-11-06T15:28:32;45.50;;;28.67;;
30948;SDS011;17637;51.984;21.208;2022-11-06T15:31:07;35.15;;;25.15;;
30948;SDS011;17637;51.984;21.208;2022-11-06T15:33:45;39.00;;;26.63;;
30948;SDS011;17637;51.984;21.208;2022-11-06T15:36:21;39.30;;;26.35;;
30948;SDS011;17637;51.984;21.208;2022-11-06T15:38:50;41.38;;;28.95;;
30948;SDS011;17637;51.984;21.208;2022-11-06T15:41:20;42.63;;;26.58;;
30948;SDS011;17637;51.984;21.208;2022-11-06T15:43:50;39.28;;;28.70;;
30948;SDS011;17637;51.984;21.208;2022-11-06T15:46:22;42.55;;;27.42;;
30948;SDS011;17637;51.984;21.208;2022-11-06T15:51:51;37.33;;;24.08;;
30948;SDS011;17637;51.984;21.208;2022-11-06T15:57:01;34.45;;;21.52;;
30948;SDS011;17637;51.984;21.208;2022-11-06T15:59:47;30.88;;;19.98;;
30948;SDS011;17637;51.984;21.208;2022-11-06T16:02:16;34.38;;;21.33;;
30948;SDS011;17637;51.984;21.208;2022-11-06T16:07:13;38.38;;;23.48;;
30948;SDS011;17637;51.984;21.208;2022-11-06T16:09:42;33.95;;;21.45;;
30948;SDS011;17637;51.984;21.208;2022-11-06T16:12:11;35.72;;;22.23;;
30948;SDS011;17637;51.984;21.208;2022-11-06T16:14:40;40.88;;;26.58;;
30948;SDS011;17637;51.984;21.208;2022-11-06T16:17:23;50.15;;;31.17;;
30948;SDS011;17637;51.984;21.208;2022-11-06T16:19:52;59.47;;;37.63;;
30948;SDS011;17637;51.984;21.208;2022-11-06T16:22:29;63.67;;;38.38;;
30948;SDS011;17637;51.984;21.208;2022-11-06T16:25:01;52.58;;;33.70;;
30948;SDS011;17637;51.984;21.208;2022-11-06T16:27:34;54.70;;;36.25;;
30948;SDS011;17637;51.984;21.208;2022-11-06T16:30:03;51.83;;;31.08;;
30948;SDS011;17637;51.984;21.208;2022-11-06T16:32:41;56.00;;;33.78;;
30948;SDS011;17637;51.984;21.208;2022-11-06T16:38:09;51.85;;;32.28;;
30948;SDS011;17637;51.984;21.208;2022-11-06T16:41:08;49.22;;;30.92;;
30948;SDS011;17637;51.984;21.208;2022-11-06T16:49:37;54.17;;;33.15;;
30948;SDS011;17637;51.984;21.208;2022-11-06T16:52:17;41.50;;;27.35;;
30948;SDS011;17637;51.984;21.208;2022-11-06T16:54:51;49.60;;;30.23;;
30948;SDS011;17637;51.984;21.208;2022-11-06T16:57:22;58.33;;;35.67;;
30948;SDS011;17637;51.984;21.208;2022-11-06T17:00:05;48.75;;;31.23;;
30948;SDS011;17637;51.984;21.208;2022-11-06T17:02:48;63.03;;;40.22;;
30948;SDS011;17637;51.984;21.208;2022-11-06T17:05:25;60.88;;;40.58;;
30948;SDS011;17637;51.984;21.208;2022-11-06T17:15:47;54.83;;;34.28;;
30948;SDS011;17637;51.984;21.208;2022-11-06T17:18:26;58.92;;;38.35;;
30948;SDS011;17637;51.984;21.208;2022-11-06T17:21:01;62.63;;;42.08;;
30948;SDS011;17637;51.984;21.208;2022-11-06T17:23:37;71.30;;;43.72;;
30948;SDS011;17637;51.984;21.208;2022-11-06T17:26:05;80.50;;;48.60;;
30948;SDS011;17637;51.984;21.208;2022-11-06T17:28:37;83.13;;;48.42;;
30948;SDS011;17637;51.984;21.208;2022-11-06T17:31:04;86.00;;;50.58;;
30948;SDS011;17637;51.984;21.208;2022-11-06T17:33:31;85.55;;;50.00;;
30948;SDS011;17637;51.984;21.208;2022-11-06T17:35:58;102.45;;;61.70;;
30948;SDS011;17637;51.984;21.208;2022-11-06T17:38:25;101.97;;;61.30;;
30948;SDS011;17637;51.984;21.208;2022-11-06T17:40:53;93.95;;;54.53;;